createdAt,value
2018-02-27T00:00:28.467Z,-9.60
2018-02-27T00:02:56.853Z,-9.60
2018-02-27T00:05:25.511Z,-9.60
2018-02-27T00:07:53.951Z,-9.70
2018-02-27T00:10:22.373Z,-9.70
2018-02-27T00:12:50.847Z,-9.60
2018-02-27T00:15:20.285Z,-9.70
2018-02-27T00:17:48.937Z,-9.70
2018-02-27T00:20:17.341Z,-9.80
2018-02-27T00:22:45.538Z,-9.90
2018-02-27T00:25:13.931Z,-9.90
2018-02-27T00:27:43.093Z,-9.90
2018-02-27T00:30:11.759Z,-9.90
2018-02-27T00:32:40.139Z,-9.80
2018-02-27T00:35:08.539Z,-9.90
2018-02-27T00:37:37.194Z,-9.90
2018-02-27T00:40:05.582Z,-9.80
2018-02-27T00:42:34.346Z,-9.90
2018-02-27T00:45:02.730Z,-9.90
2018-02-27T00:47:31.238Z,-9.90
2018-02-27T00:49:59.894Z,-10.00
2018-02-27T00:52:29.338Z,-10.00
2018-02-27T00:54:57.797Z,-10.00
2018-02-27T00:57:26.190Z,-10.00
2018-02-27T00:59:54.858Z,-10.00
2018-02-27T01:02:24.281Z,-10.00
2018-02-27T01:04:52.672Z,-10.10
2018-02-27T01:07:21.202Z,-10.10
2018-02-27T01:09:50.626Z,-10.20
2018-02-27T01:12:19.280Z,-10.20
2018-02-27T01:14:47.764Z,-10.20
2018-02-27T01:17:16.377Z,-10.20
2018-02-27T01:19:45.055Z,-10.20
2018-02-27T01:22:13.732Z,-10.20
2018-02-27T01:24:42.405Z,-10.40
2018-02-27T01:27:11.005Z,-10.40
2018-02-27T01:29:39.455Z,-10.40
2018-02-27T01:32:08.127Z,-10.50
2018-02-27T01:34:36.745Z,-10.60
2018-02-27T01:37:05.352Z,-10.50
2018-02-27T01:39:33.742Z,-10.50
2018-02-27T01:42:02.182Z,-10.60
2018-02-27T01:44:30.567Z,-10.60
2018-02-27T01:46:59.049Z,-10.60
2018-02-27T01:49:27.699Z,-10.60
2018-02-27T01:51:56.202Z,-10.70
2018-02-27T01:54:24.898Z,-10.80
2018-02-27T01:56:53.480Z,-10.70
2018-02-27T01:59:22.151Z,-10.70
2018-02-27T02:01:50.542Z,-10.70
2018-02-27T02:04:19.106Z,-10.80
2018-02-27T02:06:47.586Z,-10.80
2018-02-27T02:09:15.984Z,-10.80
2018-02-27T02:11:45.394Z,-10.80
2018-02-27T02:14:14.106Z,-10.90
2018-02-27T02:16:42.750Z,-10.80
2018-02-27T02:19:11.337Z,-10.90
2018-02-27T02:21:40.004Z,-10.90
2018-02-27T02:24:08.526Z,-10.90
2018-02-27T02:26:37.095Z,-11.00
2018-02-27T02:29:05.637Z,-11.00
2018-02-27T02:31:34.130Z,-11.00
2018-02-27T02:34:02.903Z,-11.10
2018-02-27T02:36:31.834Z,-11.10
2018-02-27T02:39:00.307Z,-11.10
2018-02-27T02:41:29.072Z,-11.10
2018-02-27T02:43:58.511Z,-11.20
2018-02-27T02:46:27.805Z,-11.20
2018-02-27T02:48:56.199Z,-11.20
2018-02-27T02:51:24.866Z,-11.20
2018-02-27T02:53:53.522Z,-11.20
2018-02-27T02:56:21.913Z,-11.30
2018-02-27T02:58:51.230Z,-11.30
2018-02-27T03:01:19.895Z,-11.30
2018-02-27T03:03:48.279Z,-11.30
2018-02-27T03:06:17.574Z,-11.30
2018-02-27T03:08:46.090Z,-11.40
2018-02-27T03:11:14.475Z,-11.30
2018-02-27T03:13:42.861Z,-11.30
2018-02-27T03:16:11.562Z,-11.30
2018-02-27T03:18:40.434Z,-11.30
2018-02-27T03:21:08.870Z,-11.30
2018-02-27T03:23:37.261Z,-11.20
2018-02-27T03:26:05.646Z,-11.20
2018-02-27T03:28:34.309Z,-11.10
2018-02-27T03:31:02.968Z,-11.20
2018-02-27T03:33:32.393Z,-11.20
2018-02-27T03:36:01.164Z,-11.20
2018-02-27T03:38:29.562Z,-11.20
2018-02-27T03:40:58.226Z,-11.10
2018-02-27T03:43:26.890Z,-11.10
2018-02-27T03:45:56.045Z,-11.10
2018-02-27T03:48:24.508Z,-11.20
2018-02-27T03:50:53.173Z,-11.10
2018-02-27T03:53:22.613Z,-11.20
2018-02-27T03:55:51.995Z,-11.20
2018-02-27T03:58:20.667Z,-11.20
2018-02-27T04:00:49.059Z,-11.10
2018-02-27T04:03:17.451Z,-11.10
2018-02-27T04:05:45.838Z,-11.10
2018-02-27T04:08:15.173Z,-11.10
2018-02-27T04:10:43.558Z,-11.10
2018-02-27T04:13:12.087Z,-11.10
2018-02-27T04:15:40.482Z,-11.10
2018-02-27T04:18:09.830Z,-11.20
2018-02-27T04:20:39.278Z,-11.20
2018-02-27T04:23:07.938Z,-11.20
2018-02-27T04:25:36.843Z,-11.10
2018-02-27T04:28:05.546Z,-11.20
2018-02-27T04:30:34.214Z,-11.10
2018-02-27T04:33:02.773Z,-11.10
2018-02-27T04:35:32.189Z,-11.20
2018-02-27T04:38:00.858Z,-11.20
2018-02-27T04:40:29.458Z,-11.10
2018-02-27T04:42:58.130Z,-11.20
2018-02-27T04:45:26.702Z,-11.10
2018-02-27T04:47:55.095Z,-11.10
2018-02-27T04:50:23.862Z,-11.10
2018-02-27T04:52:52.252Z,-11.10
2018-02-27T04:55:20.931Z,-11.20
2018-02-27T04:57:49.329Z,-11.20
2018-02-27T05:00:17.717Z,-11.30
2018-02-27T05:02:45.905Z,-11.30
2018-02-27T05:05:14.287Z,-11.30
2018-02-27T05:07:43.446Z,-11.30
2018-02-27T05:10:11.848Z,-11.30
2018-02-27T05:12:40.507Z,-11.30
2018-02-27T05:15:09.071Z,-11.30
2018-02-27T05:17:38.506Z,-11.30
2018-02-27T05:20:06.897Z,-11.30
2018-02-27T05:22:35.574Z,-11.30
2018-02-27T05:25:03.630Z,-11.40
2018-02-27T05:27:32.340Z,-11.40
2018-02-27T05:30:01.263Z,-11.40
2018-02-27T05:32:29.913Z,-11.50
2018-02-27T05:34:58.314Z,-11.40
2018-02-27T05:37:27.474Z,-11.50
2018-02-27T05:39:56.158Z,-11.50
2018-02-27T05:42:24.669Z,-11.50
2018-02-27T05:44:53.257Z,-11.50
2018-02-27T05:47:21.764Z,-11.50
2018-02-27T05:49:50.469Z,-11.50
2018-02-27T05:52:19.138Z,-11.60
2018-02-27T05:54:47.754Z,-11.60
2018-02-27T05:57:16.145Z,-11.60
2018-02-27T05:59:45.313Z,-11.60
2018-02-27T06:02:13.802Z,-11.60
2018-02-27T06:04:42.192Z,-11.50
2018-02-27T06:07:11.681Z,-11.50
2018-02-27T06:09:39.735Z,-11.50
2018-02-27T06:12:08.131Z,-11.50
2018-02-27T06:14:36.790Z,-11.60
2018-02-27T06:17:05.220Z,-11.60
2018-02-27T06:19:33.875Z,-11.50
2018-02-27T06:22:02.548Z,-11.50
2018-02-27T06:24:30.931Z,-11.40
2018-02-27T06:26:59.326Z,-11.40
2018-02-27T06:29:28.011Z,-11.30
2018-02-27T06:31:57.314Z,-11.30
2018-02-27T06:34:25.985Z,-11.30
2018-02-27T06:36:54.377Z,-11.20
2018-02-27T06:39:22.766Z,-11.10
2018-02-27T06:41:51.159Z,-11.10
2018-02-27T06:44:20.320Z,-10.90
2018-02-27T06:46:48.718Z,-11.00
2018-02-27T06:49:17.393Z,-10.80
2018-02-27T06:51:45.733Z,-10.90
2018-02-27T06:54:14.133Z,-11.00
2018-02-27T06:56:42.521Z,-11.00
2018-02-27T06:59:11.198Z,-11.00
2018-02-27T07:01:39.857Z,-10.90
2018-02-27T07:04:09.294Z,-10.80
2018-02-27T07:06:37.965Z,-10.80
2018-02-27T07:09:06.365Z,-10.70
2018-02-27T07:11:34.800Z,-10.70
2018-02-27T07:14:03.623Z,-10.80
2018-02-27T07:16:32.020Z,-10.80
2018-02-27T07:19:01.185Z,-10.60
2018-02-27T07:21:29.667Z,-10.70
2018-02-27T07:23:58.902Z,-10.50
2018-02-27T07:26:36.529Z,-10.50
2018-02-27T07:29:04.931Z,-10.40
2018-02-27T07:31:33.605Z,-10.40
2018-02-27T07:34:03.066Z,-10.20
2018-02-27T07:36:32.215Z,-9.90
2018-02-27T07:39:00.885Z,-9.90
2018-02-27T07:41:29.266Z,-9.90
2018-02-27T07:43:57.985Z,-9.70
2018-02-27T07:46:26.382Z,-9.60
2018-02-27T07:48:54.947Z,-9.50
2018-02-27T07:51:23.710Z,-9.70
2018-02-27T07:53:52.299Z,-9.60
2018-02-27T07:56:20.858Z,-9.50
2018-02-27T07:58:50.313Z,-9.50
2018-02-27T08:01:18.995Z,-9.50
2018-02-27T08:03:47.385Z,-9.20
2018-02-27T08:06:16.555Z,-9.10
2018-02-27T08:08:45.309Z,-9.10
2018-02-27T08:11:14.865Z,-8.80
2018-02-27T08:13:43.293Z,-8.80
2018-02-27T08:16:12.739Z,-8.50
2018-02-27T08:18:41.076Z,-8.60
2018-02-27T08:21:09.602Z,-8.50
2018-02-27T08:23:38.258Z,-8.20
2018-02-27T08:26:06.650Z,-8.20
2018-02-27T08:28:35.275Z,-8.00
2018-02-27T08:31:04.446Z,-7.10
2018-02-27T08:33:33.127Z,-7.20
2018-02-27T08:36:01.798Z,-7.10
2018-02-27T08:38:30.214Z,-7.10
2018-02-27T08:40:59.515Z,-6.80
2018-02-27T08:43:28.678Z,-6.40
2018-02-27T08:45:57.250Z,-6.40
2018-02-27T08:48:27.274Z,-6.00
2018-02-27T08:50:56.620Z,-6.00
2018-02-27T08:53:26.178Z,-5.80
2018-02-27T08:55:55.680Z,-5.50
2018-02-27T08:58:24.458Z,-5.50
2018-02-27T09:00:52.958Z,-5.50
2018-02-27T09:03:21.656Z,-4.90
2018-02-27T09:05:50.310Z,-4.60
2018-02-27T09:08:18.989Z,-4.20
2018-02-27T09:10:47.374Z,-4.40
2018-02-27T09:13:15.771Z,-4.60
2018-02-27T09:15:44.934Z,-4.50
2018-02-27T09:18:13.620Z,-4.50
2018-02-27T09:20:42.276Z,-4.50
2018-02-27T09:23:10.942Z,-4.50
2018-02-27T09:25:39.409Z,-4.30
2018-02-27T09:28:07.805Z,-3.90
2018-02-27T09:30:36.442Z,-3.80
2018-02-27T09:33:05.212Z,-2.90
2018-02-27T09:35:33.624Z,-3.50
2018-02-27T09:38:02.087Z,-4.60
2018-02-27T09:40:30.470Z,-4.00
2018-02-27T09:42:58.858Z,-4.40
2018-02-27T09:45:27.246Z,-4.30
2018-02-27T09:47:55.643Z,-3.80
2018-02-27T09:50:24.882Z,-3.30
2018-02-27T09:52:53.316Z,-3.30
2018-02-27T09:55:21.961Z,-3.10
2018-02-27T09:57:50.349Z,-2.80
2018-02-27T10:00:19.014Z,-3.00
2018-02-27T10:02:47.738Z,-2.90
2018-02-27T10:05:16.567Z,-3.10
2018-02-27T10:07:46.013Z,-2.60
2018-02-27T10:10:14.493Z,-2.60
2018-02-27T10:12:43.159Z,-2.00
2018-02-27T10:15:10.899Z,-2.20
2018-02-27T10:17:40.124Z,-2.50
2018-02-27T10:20:08.511Z,-1.60
2018-02-27T10:22:36.903Z,-1.60
2018-02-27T10:25:05.307Z,-1.90
2018-02-27T10:27:34.037Z,-2.20
2018-02-27T10:30:02.854Z,-2.10
2018-02-27T10:32:31.246Z,-2.20
2018-02-27T10:35:00.442Z,-1.90
2018-02-27T10:37:29.582Z,-1.40
2018-02-27T10:39:57.978Z,-1.50
2018-02-27T10:42:27.511Z,-2.00
2018-02-27T10:44:55.902Z,-1.90
2018-02-27T10:47:24.623Z,-2.60
2018-02-27T10:49:53.014Z,-2.70
2018-02-27T10:52:21.678Z,-1.90
2018-02-27T10:54:50.234Z,-1.70
2018-02-27T10:57:18.889Z,-1.70
2018-02-27T10:59:47.374Z,-2.20
2018-02-27T11:02:16.649Z,-1.60
2018-02-27T11:04:46.081Z,-1.70
2018-02-27T11:07:14.620Z,-1.70
2018-02-27T11:09:43.094Z,-1.60
2018-02-27T11:12:12.525Z,-2.50
2018-02-27T11:14:41.177Z,-2.50
2018-02-27T11:17:09.568Z,-2.40
2018-02-27T11:19:38.221Z,-2.70
2018-02-27T11:22:06.926Z,-2.50
2018-02-27T11:24:36.254Z,-2.00
2018-02-27T11:27:04.921Z,-2.00
2018-02-27T11:29:33.333Z,-1.80
2018-02-27T11:32:01.719Z,-1.50
2018-02-27T11:34:31.171Z,-1.80
2018-02-27T11:37:00.613Z,-1.60
2018-02-27T11:39:29.270Z,-1.60
2018-02-27T11:41:57.663Z,-1.10
2018-02-27T11:44:26.320Z,-2.30
2018-02-27T11:46:54.721Z,-2.40
2018-02-27T11:49:23.422Z,-2.90
2018-02-27T11:51:51.990Z,-2.40
2018-02-27T11:54:20.378Z,-3.30
2018-02-27T11:56:49.586Z,-3.20
2018-02-27T11:59:17.982Z,-3.20
2018-02-27T12:01:46.652Z,-2.90
2018-02-27T12:04:15.330Z,-3.20
2018-02-27T12:06:44.006Z,-3.80
2018-02-27T12:09:12.668Z,-4.00
2018-02-27T12:11:41.063Z,-3.60
2018-02-27T12:14:09.454Z,-3.20
2018-02-27T12:16:37.849Z,-3.70
2018-02-27T12:19:06.313Z,-4.40
2018-02-27T12:21:34.925Z,-4.20
2018-02-27T12:24:03.593Z,-3.60
2018-02-27T12:26:32.523Z,-3.30
2018-02-27T12:29:01.149Z,-3.20
2018-02-27T12:31:30.022Z,-3.30
2018-02-27T12:33:59.321Z,-3.10
2018-02-27T12:36:27.708Z,-3.10
2018-02-27T12:38:56.634Z,-3.60
2018-02-27T12:41:25.999Z,-3.40
2018-02-27T12:43:54.236Z,-3.50
2018-02-27T12:46:22.965Z,-3.40
2018-02-27T12:48:51.620Z,-4.20
2018-02-27T12:51:20.233Z,-3.80
2018-02-27T12:53:48.626Z,-3.10
2018-02-27T12:56:17.997Z,-3.60
2018-02-27T12:58:46.403Z,-3.60
2018-02-27T13:01:15.087Z,-3.70
2018-02-27T13:03:43.759Z,-4.00
2018-02-27T13:06:12.411Z,-4.50
2018-02-27T13:08:40.794Z,-4.70
2018-02-27T13:11:10.221Z,-5.40
2018-02-27T13:13:38.898Z,-5.40
2018-02-27T13:16:07.550Z,-5.50
2018-02-27T13:18:36.251Z,-5.40
2018-02-27T13:21:05.570Z,-5.30
2018-02-27T13:23:34.222Z,-5.30
2018-02-27T13:26:02.892Z,-5.40
2018-02-27T13:28:31.806Z,-5.20
2018-02-27T13:31:00.221Z,-5.70
2018-02-27T13:33:28.772Z,-5.80
2018-02-27T13:35:57.550Z,-5.90
2018-02-27T13:38:26.670Z,-5.80
2018-02-27T13:40:55.681Z,-6.00
2018-02-27T13:43:24.114Z,-6.10
2018-02-27T13:45:52.817Z,-6.10
2018-02-27T13:48:21.214Z,-6.30
2018-02-27T13:50:49.609Z,-6.70
2018-02-27T13:53:18.268Z,-6.70
2018-02-27T13:55:46.887Z,-6.60
2018-02-27T13:58:15.536Z,-6.70
2018-02-27T14:00:44.770Z,-6.70
2018-02-27T14:03:14.334Z,-6.50
2018-02-27T14:05:42.763Z,-6.60
2018-02-27T14:08:12.015Z,-6.30
2018-02-27T14:10:40.434Z,-6.30
2018-02-27T14:13:09.579Z,-6.40
2018-02-27T14:15:38.233Z,-6.40
2018-02-27T14:18:06.635Z,-6.30
2018-02-27T14:20:35.307Z,-6.40
2018-02-27T14:23:03.695Z,-6.20
2018-02-27T14:25:33.003Z,-6.40
2018-02-27T14:28:01.607Z,-6.40
2018-02-27T14:30:30.017Z,-6.40
2018-02-27T14:32:59.184Z,-6.10
2018-02-27T14:35:27.839Z,-6.20
2018-02-27T14:37:56.227Z,-6.20
2018-02-27T14:40:25.168Z,-6.40
2018-02-27T14:42:53.856Z,-6.60
2018-02-27T14:45:22.518Z,-6.70
2018-02-27T14:47:50.954Z,-6.70
2018-02-27T14:50:20.382Z,-6.50
2018-02-27T14:52:49.058Z,-6.50
2018-02-27T14:55:17.445Z,-6.70
2018-02-27T14:57:45.958Z,-6.60
2018-02-27T15:00:15.106Z,-6.90
2018-02-27T15:02:43.790Z,-7.00
2018-02-27T15:05:12.166Z,-7.20
2018-02-27T15:07:40.561Z,-7.30
2018-02-27T15:10:09.041Z,-7.20
2018-02-27T15:12:37.675Z,-7.00
2018-02-27T15:15:06.295Z,-7.10
2018-02-27T15:17:35.064Z,-7.00
2018-02-27T15:20:04.481Z,-7.20
2018-02-27T15:22:32.696Z,-7.20
2018-02-27T15:25:01.359Z,-7.30
2018-02-27T15:27:30.019Z,-7.20
2018-02-27T15:29:58.410Z,-7.10
2018-02-27T15:32:27.075Z,-7.10
2018-02-27T15:34:56.406Z,-7.40
2018-02-27T15:37:25.054Z,-7.40
2018-02-27T15:39:53.604Z,-7.40
2018-02-27T15:42:22.407Z,-7.20
2018-02-27T15:44:51.865Z,-7.20
2018-02-27T15:47:20.563Z,-7.20
2018-02-27T15:49:49.288Z,-7.30
2018-02-27T15:52:18.120Z,-7.40
2018-02-27T15:54:47.423Z,-7.40
2018-02-27T15:57:16.080Z,-7.40
2018-02-27T15:59:45.883Z,-7.50
2018-02-27T16:02:14.268Z,-7.50
2018-02-27T16:04:43.698Z,-7.70
2018-02-27T16:07:12.982Z,-7.70
2018-02-27T16:09:41.384Z,-7.70
2018-02-27T16:12:09.762Z,-7.70
2018-02-27T16:14:38.327Z,-7.80
2018-02-27T16:17:06.746Z,-7.90
2018-02-27T16:19:35.568Z,-7.90
2018-02-27T16:22:03.950Z,-8.00
2018-02-27T16:24:32.350Z,-8.00
2018-02-27T16:27:00.737Z,-8.00
2018-02-27T16:29:29.398Z,-8.10
2018-02-27T16:31:57.790Z,-8.10
2018-02-27T16:34:26.457Z,-8.10
2018-02-27T16:36:55.045Z,-8.10
2018-02-27T16:39:23.436Z,-8.20
2018-02-27T16:41:52.039Z,-8.20
2018-02-27T16:44:20.942Z,-8.20
2018-02-27T16:46:50.397Z,-8.40
2018-02-27T16:49:18.787Z,-8.40
2018-02-27T16:51:47.459Z,-8.50
2018-02-27T16:54:16.026Z,-8.40
2018-02-27T16:56:44.651Z,-8.50
2018-02-27T16:59:13.302Z,-8.50
2018-02-27T17:01:42.755Z,-8.60
2018-02-27T17:04:11.686Z,-8.60
2018-02-27T17:06:40.419Z,-8.70
2018-02-27T17:09:09.079Z,-8.70
2018-02-27T17:11:37.844Z,-8.80
2018-02-27T17:14:07.275Z,-8.80
2018-02-27T17:16:35.674Z,-8.80
2018-02-27T17:19:04.106Z,-8.80
2018-02-27T17:21:33.536Z,-8.90
2018-02-27T17:24:01.942Z,-9.00
2018-02-27T17:26:30.626Z,-8.90
2018-02-27T17:28:59.306Z,-8.90
2018-02-27T17:31:27.686Z,-8.90
2018-02-27T17:33:56.366Z,-9.00
2018-02-27T17:36:25.018Z,-9.00
2018-02-27T17:38:53.690Z,-9.10
2018-02-27T17:41:22.186Z,-9.10
2018-02-27T17:43:50.690Z,-9.10
2018-02-27T17:46:19.349Z,-9.20
2018-02-27T17:48:53.672Z,-9.20
2018-02-27T17:51:22.358Z,-9.20
2018-02-27T17:53:50.768Z,-9.20
2018-02-27T17:56:19.444Z,-9.20
2018-02-27T17:58:48.111Z,-9.20
2018-02-27T18:01:16.583Z,-9.10
2018-02-27T18:03:45.348Z,-9.20
2018-02-27T18:06:14.106Z,-9.30
2018-02-27T18:08:42.715Z,-9.30
2018-02-27T18:11:12.138Z,-9.40
2018-02-27T18:13:40.598Z,-9.40
2018-02-27T18:16:10.109Z,-9.40
2018-02-27T18:18:39.539Z,-9.40
2018-02-27T18:21:07.926Z,-9.50
2018-02-27T18:23:36.361Z,-9.50
2018-02-27T18:26:04.889Z,-9.50
2018-02-27T18:28:34.068Z,-9.50
2018-02-27T18:31:02.463Z,-9.50
2018-02-27T18:33:30.841Z,-9.60
2018-02-27T18:35:59.233Z,-9.60
2018-02-27T18:38:27.924Z,-9.70
2018-02-27T18:40:57.093Z,-9.70
2018-02-27T18:43:25.755Z,-9.70
2018-02-27T18:45:54.424Z,-9.70
2018-02-27T18:48:23.848Z,-9.80
2018-02-27T18:50:52.255Z,-9.80
2018-02-27T18:53:20.913Z,-9.80
2018-02-27T18:55:49.311Z,-9.80
2018-02-27T18:58:18.699Z,-9.80
2018-02-27T19:00:47.103Z,-9.80
2018-02-27T19:03:15.755Z,-9.90
2018-02-27T19:05:44.240Z,-9.90
2018-02-27T19:08:12.919Z,-9.90
2018-02-27T19:10:41.680Z,-9.90
2018-02-27T19:13:10.915Z,-10.00
2018-02-27T19:15:39.611Z,-10.00
2018-02-27T19:18:09.096Z,-10.00
2018-02-27T19:20:37.754Z,-10.00
2018-02-27T19:23:06.167Z,-10.00
2018-02-27T19:25:34.674Z,-10.00
2018-02-27T19:28:03.365Z,-10.10
2018-02-27T19:30:32.518Z,-10.20
2018-02-27T19:33:01.190Z,-10.20
2018-02-27T19:35:29.578Z,-10.20
2018-02-27T19:37:57.966Z,-10.30
2018-02-27T19:40:26.488Z,-10.20
2018-02-27T19:42:55.406Z,-10.20
2018-02-27T19:45:23.889Z,-10.30
2018-02-27T19:47:53.486Z,-10.40
2018-02-27T19:50:21.894Z,-10.40
2018-02-27T19:52:50.482Z,-10.40
2018-02-27T19:55:18.869Z,-10.40
2018-02-27T19:57:47.538Z,-10.50
2018-02-27T20:00:16.008Z,-10.50
2018-02-27T20:02:44.452Z,-10.50
2018-02-27T20:05:13.943Z,-10.50
2018-02-27T20:07:42.508Z,-10.60
2018-02-27T20:10:11.179Z,-10.60
2018-02-27T20:12:39.667Z,-10.60
2018-02-27T20:15:08.051Z,-10.60
2018-02-27T20:17:42.430Z,-10.70
2018-02-27T20:20:11.106Z,-10.70
2018-02-27T20:22:45.258Z,-10.70
2018-02-27T20:25:13.868Z,-10.70
2018-02-27T20:27:42.347Z,-10.70
2018-02-27T20:30:11.534Z,-10.80
2018-02-27T20:32:40.208Z,-10.80
2018-02-27T20:35:08.604Z,-10.80
2018-02-27T20:37:37.282Z,-10.70
2018-02-27T20:40:05.680Z,-10.80
2018-02-27T20:42:34.341Z,-10.80
2018-02-27T20:45:03.133Z,-10.90
2018-02-27T20:47:31.851Z,-10.90
2018-02-27T20:50:00.565Z,-10.90
2018-02-27T20:52:31.572Z,-11.00
2018-02-27T20:55:00.250Z,-11.10
2018-02-27T20:57:28.634Z,-11.10
2018-02-27T20:59:57.323Z,-11.10
2018-02-27T21:02:25.961Z,-11.00
2018-02-27T21:04:54.361Z,-11.10
2018-02-27T21:07:23.516Z,-11.10
2018-02-27T21:09:52.203Z,-11.10
2018-02-27T21:12:20.871Z,-11.10
2018-02-27T21:14:49.356Z,-11.10
2018-02-27T21:17:18.816Z,-11.20
2018-02-27T21:19:48.183Z,-11.20
2018-02-27T21:22:16.571Z,-11.20
2018-02-27T21:24:45.250Z,-11.30
2018-02-27T21:27:13.631Z,-11.30
2018-02-27T21:29:42.191Z,-11.40
2018-02-27T21:32:10.574Z,-11.40
2018-02-27T21:34:39.095Z,-11.40
2018-02-27T21:37:08.414Z,-11.50
2018-02-27T21:39:36.848Z,-11.50
2018-02-27T21:42:05.428Z,-11.40
2018-02-27T21:44:34.166Z,-11.40
2018-02-27T21:47:03.624Z,-11.50
2018-02-27T21:49:32.334Z,-11.50
2018-02-27T21:52:01.006Z,-11.50
2018-02-27T21:54:29.683Z,-11.40
2018-02-27T21:56:58.149Z,-11.40
2018-02-27T21:59:27.634Z,-11.50
2018-02-27T22:01:56.038Z,-11.50
2018-02-27T22:04:24.421Z,-11.50
2018-02-27T22:06:52.822Z,-11.50
2018-02-27T22:09:21.978Z,-11.60
2018-02-27T22:11:50.373Z,-11.60
2018-02-27T22:14:18.763Z,-11.60
2018-02-27T22:16:47.486Z,-11.70
2018-02-27T22:19:16.299Z,-11.70
2018-02-27T22:21:45.001Z,-11.70
2018-02-27T22:24:13.560Z,-11.70
2018-02-27T22:26:41.963Z,-11.70
2018-02-27T22:29:11.454Z,-11.80
2018-02-27T22:31:39.865Z,-11.80
2018-02-27T22:34:08.723Z,-11.80
2018-02-27T22:36:37.111Z,-11.80
2018-02-27T22:39:06.611Z,-11.70
2018-02-27T22:41:35.286Z,-11.80
2018-02-27T22:44:03.679Z,-11.80
2018-02-27T22:46:32.080Z,-11.70
2018-02-27T22:49:00.754Z,-11.70
2018-02-27T22:51:29.480Z,-11.70
2018-02-27T22:53:58.922Z,-11.60
2018-02-27T22:56:27.430Z,-11.60
2018-02-27T22:58:56.193Z,-11.60
2018-02-27T23:01:24.578Z,-11.60
2018-02-27T23:03:53.242Z,-11.50
2018-02-27T23:06:23.286Z,-11.50
2018-02-27T23:08:51.922Z,-11.50
2018-02-27T23:11:21.354Z,-11.60
2018-02-27T23:13:50.022Z,-11.60
2018-02-27T23:16:18.526Z,-11.70
2018-02-27T23:18:46.898Z,-11.70
2018-02-27T23:21:15.553Z,-11.70
2018-02-27T23:23:45.580Z,-11.70
2018-02-27T23:26:24.694Z,-11.80
2018-02-27T23:28:54.561Z,-11.80
2018-02-27T23:31:24.266Z,-11.90
2018-02-27T23:33:59.907Z,-11.90
2018-02-27T23:36:28.359Z,-11.90
2018-02-27T23:38:56.754Z,-11.90
2018-02-27T23:41:25.262Z,-11.90
2018-02-27T23:43:54.422Z,-11.90
2018-02-27T23:46:22.818Z,-11.90
2018-02-27T23:48:51.213Z,-12.00
2018-02-27T23:51:19.681Z,-12.00
2018-02-27T23:53:48.106Z,-12.10
2018-02-27T23:56:17.537Z,-12.20
2018-02-27T23:58:46.212Z,-12.20
